Jette Viking Hv77 — 5QEP — position and weather

sailwx.info

Track history (hours):
 
Tides and Currents Weather Stations Pressure Air Temp Water Temp Dewpoint Dewpoint Depression Visibility Wind Speed Wind Dir Waves Ship Positions

Jette Viking Hv77

Last reported at 2015-Aug-31 06:16 UTC. Time now 2015-Aug-31 06:50 UTC.
Position N 57°30' E 010°30'.

Length 16 m.

Type: Fishing. MMSI: 220046000.

Date/timePositionNaut miles runAvg speedWind from/ knotsBaromVisibWave heightAir tempDewpointWater temp
2015-Aug-31 06:16N 57°30' E 010°30'0 0.1
2015-Aug-31 05:31N 57°30' E 010°30'4 3.7
2015-Aug-31 04:28N 57°31' E 010°37'4 4.9
2015-Aug-31 03:33N 57°31' E 010°45'2 2.5
2015-Aug-31 02:33N 57°32' E 010°50'3 2.4
2015-Aug-31 01:29N 57°30' E 010°48'2 2.3
2015-Aug-31 00:31N 57°28' E 010°45'2 2.4
2015-Aug-30 23:33N 57°29' E 010°41'2 2.0
2015-Aug-30 22:21N 57°31' E 010°40'2 2.6
2015-Aug-30 21:26N 57°33' E 010°39'1 0.8
2015-Aug-30 20:33N 57°33' E 010°38'3 2.6
2015-Aug-30 19:32N 57°30' E 010°40'2 2.5
2015-Aug-30 18:32N 57°28' E 010°41'6 0.5
2015-Aug-30 06:18N 57°30' E 010°30'2 1.9
2015-Aug-30 05:16N 57°29' E 010°34'2 2.2
2015-Aug-30 04:33N 57°29' E 010°37'3 0.3
2015-Aug-29 18:14N 57°28' E 010°42'3 4.1
2015-Aug-29 17:31N 57°29' E 010°36'  
2015-Aug-27 07:16N 57°30' E 010°30'0 0.0
2015-Aug-27 06:28N 57°30' E 010°30'0 0.0
2015-Aug-27 05:33N 57°30' E 010°30'  
2015-Aug-24 11:17N 57°30' E 010°30'11 1.3
2015-Aug-24 02:25N 57°28' E 010°51'2 2.5
2015-Aug-24 01:33N 57°29' E 010°55'8 2.5
2015-Aug-23 22:13N 57°34' E 011°07'1 1.9
2015-Aug-23 21:33N 57°33' E 011°05'2 2.5
2015-Aug-23 20:33N 57°32' E 011°02'3 2.5
2015-Aug-23 19:33N 57°30' E 010°58'2 2.5
2015-Aug-23 18:33N 57°29' E 010°55'5 5.3
2015-Aug-23 17:33N 57°28' E 010°45'7 6.8
2015-Aug-23 16:28N 57°30' E 010°31'0 0.5
2015-Aug-23 15:33N 57°30' E 010°30'0 0.0
2015-Aug-23 14:24N 57°30' E 010°30'0 0.0
2015-Aug-23 10:08N 57°30' E 010°30'0 0.0
2015-Aug-23 09:30N 57°30' E 010°30'0 0.0
2015-Aug-23 08:33N 57°30' E 010°30'0 0.0
2015-Aug-23 07:33N 57°30' E 010°30'0 0.0
2015-Aug-23 06:33N 57°30' E 010°30'1 1.4
2015-Aug-23 05:33N 57°30' E 010°33'7 6.8
2015-Aug-23 04:33N 57°29' E 010°46'4 3.8
2015-Aug-23 03:33N 57°28' E 010°53'2 2.5
2015-Aug-23 02:33N 57°29' E 010°57'3 2.5
2015-Aug-23 01:33N 57°31' E 011°00'3 2.6
2015-Aug-23 00:33N 57°32' E 011°04'3 2.5
2015-Aug-22 23:33N 57°34' E 011°07'1 1.0
2015-Aug-22 22:34N 57°35' E 011°08'3 2.5
2015-Aug-22 21:33N 57°33' E 011°05'3 2.5
2015-Aug-22 20:33N 57°31' E 011°02'2 2.5
2015-Aug-22 19:33N 57°30' E 010°58'3 2.5
2015-Aug-22 18:33N 57°28' E 010°54'5 4.7
2015-Aug-22 17:33N 57°28' E 010°46'6 5.9
2015-Aug-22 16:33N 57°29' E 010°35'2 2.4
2015-Aug-22 15:33N 57°30' E 010°30'0 0.0
2015-Aug-22 14:31N 57°30' E 010°30'0 0.0
2015-Aug-22 13:33N 57°30' E 010°30'0 0.0
2015-Aug-22 12:33N 57°30' E 010°30'0 0.0
2015-Aug-22 11:33N 57°30' E 010°30'0 0.0
2015-Aug-22 10:33N 57°30' E 010°30'0 0.0
2015-Aug-22 09:34N 57°30' E 010°30'0 0.0
2015-Aug-22 08:33N 57°30' E 010°30'0 0.0
2015-Aug-22 07:33N 57°30' E 010°30'0 0.0
2015-Aug-22 06:33N 57°30' E 010°30'1 0.7
2015-Aug-22 05:33N 57°30' E 010°32'7 6.7
2015-Aug-22 04:33N 57°28' E 010°44'5 4.6
2015-Aug-22 03:33N 57°28' E 010°52'2 2.5
2015-Aug-22 02:33N 57°29' E 010°57'3 2.6
2015-Aug-22 01:33N 57°31' E 011°01'3 2.6
2015-Aug-22 00:33N 57°32' E 011°04'3 2.5
2015-Aug-21 23:33N 57°35' E 011°07'1 0.8
2015-Aug-21 22:33N 57°35' E 011°08'3 2.5
2015-Aug-21 21:33N 57°33' E 011°04'3 2.5
2015-Aug-21 20:33N 57°32' E 011°01'2 2.5
2015-Aug-21 19:34N 57°30' E 010°58'3 2.5
2015-Aug-21 18:33N 57°29' E 010°54'5 5.3
2015-Aug-21 17:33N 57°29' E 010°44'6 6.4
2015-Aug-21 16:33N 57°30' E 010°32'1 0.9
2015-Aug-21 15:33N 57°30' E 010°30'0 0.0
2015-Aug-21 14:33N 57°30' E 010°30'0 0.0
2015-Aug-21 13:26N 57°30' E 010°30'0 0.1
2015-Aug-21 12:33N 57°30' E 010°30'0 0.0
2015-Aug-21 11:33N 57°30' E 010°30'0 0.0
2015-Aug-21 10:33N 57°30' E 010°30'0 0.0
2015-Aug-21 09:33N 57°30' E 010°30'0 0.0
2015-Aug-21 08:33N 57°30' E 010°30'0 0.0
2015-Aug-21 07:33N 57°30' E 010°30'0 0.0
2015-Aug-21 06:33N 57°30' E 010°30'  
Track history (hours):
 
Tides and Currents Weather Stations Pressure Air Temp Water Temp Dewpoint Dewpoint Depression Visibility Wind Speed Wind Dir Waves Ship Positions

Jette Viking Hv77

Last reported at 2015-Aug-31 06:16 UTC. Time now 2015-Aug-31 06:50 UTC.
Position N 57°30' E 010°30'.

Length 16 m.

Type: Fishing. MMSI: 220046000.

Date/timePositionNaut miles runAvg speedWind from/ knotsBaromVisibWave heightAir tempDewpointWater temp
2015-Aug-31 06:16N 57°30' E 010°30'0 0.1
2015-Aug-31 05:31N 57°30' E 010°30'4 3.7
2015-Aug-31 04:28N 57°31' E 010°37'4 4.9
2015-Aug-31 03:33N 57°31' E 010°45'2 2.5
2015-Aug-31 02:33N 57°32' E 010°50'3 2.4
2015-Aug-31 01:29N 57°30' E 010°48'2 2.3
2015-Aug-31 00:31N 57°28' E 010°45'2 2.4
2015-Aug-30 23:33N 57°29' E 010°41'2 2.0
2015-Aug-30 22:21N 57°31' E 010°40'2 2.6
2015-Aug-30 21:26N 57°33' E 010°39'1 0.8
2015-Aug-30 20:33N 57°33' E 010°38'3 2.6
2015-Aug-30 19:32N 57°30' E 010°40'2 2.5
2015-Aug-30 18:32N 57°28' E 010°41'6 0.5
2015-Aug-30 06:18N 57°30' E 010°30'2 1.9
2015-Aug-30 05:16N 57°29' E 010°34'2 2.2
2015-Aug-30 04:33N 57°29' E 010°37'3 0.3
2015-Aug-29 18:14N 57°28' E 010°42'3 4.1
2015-Aug-29 17:31N 57°29' E 010°36'  
2015-Aug-27 07:16N 57°30' E 010°30'0 0.0
2015-Aug-27 06:28N 57°30' E 010°30'0 0.0
2015-Aug-27 05:33N 57°30' E 010°30'  
2015-Aug-24 11:17N 57°30' E 010°30'11 1.3
2015-Aug-24 02:25N 57°28' E 010°51'2 2.5
2015-Aug-24 01:33N 57°29' E 010°55'8 2.5
2015-Aug-23 22:13N 57°34' E 011°07'1 1.9
2015-Aug-23 21:33N 57°33' E 011°05'2 2.5
2015-Aug-23 20:33N 57°32' E 011°02'3 2.5
2015-Aug-23 19:33N 57°30' E 010°58'2 2.5
2015-Aug-23 18:33N 57°29' E 010°55'5 5.3
2015-Aug-23 17:33N 57°28' E 010°45'7 6.8
2015-Aug-23 16:28N 57°30' E 010°31'0 0.5
2015-Aug-23 15:33N 57°30' E 010°30'0 0.0
2015-Aug-23 14:24N 57°30' E 010°30'0 0.0
2015-Aug-23 10:08N 57°30' E 010°30'0 0.0
2015-Aug-23 09:30N 57°30' E 010°30'0 0.0
2015-Aug-23 08:33N 57°30' E 010°30'0 0.0
2015-Aug-23 07:33N 57°30' E 010°30'0 0.0
2015-Aug-23 06:33N 57°30' E 010°30'1 1.4
2015-Aug-23 05:33N 57°30' E 010°33'7 6.8
2015-Aug-23 04:33N 57°29' E 010°46'4 3.8
2015-Aug-23 03:33N 57°28' E 010°53'2 2.5
2015-Aug-23 02:33N 57°29' E 010°57'3 2.5
2015-Aug-23 01:33N 57°31' E 011°00'3 2.6
2015-Aug-23 00:33N 57°32' E 011°04'3 2.5
2015-Aug-22 23:33N 57°34' E 011°07'1 1.0
2015-Aug-22 22:34N 57°35' E 011°08'3 2.5
2015-Aug-22 21:33N 57°33' E 011°05'3 2.5
2015-Aug-22 20:33N 57°31' E 011°02'2 2.5
2015-Aug-22 19:33N 57°30' E 010°58'3 2.5
2015-Aug-22 18:33N 57°28' E 010°54'5 4.7
2015-Aug-22 17:33N 57°28' E 010°46'6 5.9
2015-Aug-22 16:33N 57°29' E 010°35'2 2.4
2015-Aug-22 15:33N 57°30' E 010°30'0 0.0
2015-Aug-22 14:31N 57°30' E 010°30'0 0.0
2015-Aug-22 13:33N 57°30' E 010°30'0 0.0
2015-Aug-22 12:33N 57°30' E 010°30'0 0.0
2015-Aug-22 11:33N 57°30' E 010°30'0 0.0
2015-Aug-22 10:33N 57°30' E 010°30'0 0.0
2015-Aug-22 09:34N 57°30' E 010°30'0 0.0
2015-Aug-22 08:33N 57°30' E 010°30'0 0.0
2015-Aug-22 07:33N 57°30' E 010°30'0 0.0
2015-Aug-22 06:33N 57°30' E 010°30'1 0.7
2015-Aug-22 05:33N 57°30' E 010°32'7 6.7
2015-Aug-22 04:33N 57°28' E 010°44'5 4.6
2015-Aug-22 03:33N 57°28' E 010°52'2 2.5
2015-Aug-22 02:33N 57°29' E 010°57'3 2.6
2015-Aug-22 01:33N 57°31' E 011°01'3 2.6
2015-Aug-22 00:33N 57°32' E 011°04'3 2.5
2015-Aug-21 23:33N 57°35' E 011°07'1 0.8
2015-Aug-21 22:33N 57°35' E 011°08'3 2.5
2015-Aug-21 21:33N 57°33' E 011°04'3 2.5
2015-Aug-21 20:33N 57°32' E 011°01'2 2.5
2015-Aug-21 19:34N 57°30' E 010°58'3 2.5
2015-Aug-21 18:33N 57°29' E 010°54'5 5.3
2015-Aug-21 17:33N 57°29' E 010°44'6 6.4
2015-Aug-21 16:33N 57°30' E 010°32'1 0.9
2015-Aug-21 15:33N 57°30' E 010°30'0 0.0
2015-Aug-21 14:33N 57°30' E 010°30'0 0.0
2015-Aug-21 13:26N 57°30' E 010°30'0 0.1
2015-Aug-21 12:33N 57°30' E 010°30'0 0.0
2015-Aug-21 11:33N 57°30' E 010°30'0 0.0
2015-Aug-21 10:33N 57°30' E 010°30'0 0.0
2015-Aug-21 09:33N 57°30' E 010°30'0 0.0
2015-Aug-21 08:33N 57°30' E 010°30'0 0.0
2015-Aug-21 07:33N 57°30' E 010°30'0 0.0
2015-Aug-21 06:33N 57°30' E 010°30'  

Dump ship's entire track history